Spar Capella — LAKA7 — position and weather

sailwx.info

Track history (hours):
 
Tides and Currents Weather Stations Pressure Air Temp Water Temp Dewpoint Dewpoint Depression Visibility Wind Speed Wind Dir Waves Ship Positions

Spar Capella

Last reported at 2018-Mar-07 16:57 UTC. Time now 2018-May-21 05:14 UTC.
Position N 09°11' W 079°52'.
Warning: this ship's position is months out of date.

Length 190 m; draft 11.3 m.

Type: Cargo ship. MMSI: 259545000.

Date/timePositionNaut miles runAvg speedWind from/ knotsBaromVisibWave heightAir tempDewpointWater temp
2018-Mar-07 16:57N 09°11' W 079°52'4 8.2
2018-Mar-07 16:29N 09°12' W 079°55'1 2.7
2018-Mar-07 16:00N 09°14' W 079°56'0 0.0
2018-Mar-07 15:30N 09°14' W 079°56'0 0.0
2018-Mar-07 11:57N 09°14' W 079°56'0 0.0
2018-Mar-07 10:33N 09°14' W 079°56'0 0.0
2018-Mar-07 10:06N 09°14' W 079°56'0 0.1
2018-Mar-07 09:39N 09°14' W 079°56'0 0.1
2018-Mar-07 09:30N 09°14' W 079°56'0 0.0
2018-Mar-07 09:00N 09°14' W 079°56'0 0.0
2018-Mar-07 06:51N 09°14' W 079°56'0 0.0
2018-Mar-07 06:30N 09°14' W 079°56'0 0.0
2018-Mar-07 05:39N 09°14' W 079°56'0 0.0
2018-Mar-07 05:30N 09°14' W 079°56'0 0.0
2018-Mar-07 05:00N 09°14' W 079°56'0 0.1
2018-Mar-07 03:27N 09°14' W 079°56'1 2.1
2018-Mar-07 03:00N 09°15' W 079°55'2 3.3
2018-Mar-07 02:28N 09°16' W 079°55'0 0.4
2018-Mar-07 01:58N 09°16' W 079°55'0 0.4
2018-Mar-07 01:30N 09°17' W 079°55'0 0.5
2018-Mar-07 01:00N 09°17' W 079°55'1 1.2
2018-Mar-07 00:30N 09°17' W 079°55'3 5.1
2018-Mar-07 00:00N 09°20' W 079°55'2 3.4
2018-Mar-06 23:28N 09°22' W 079°56'0 0.1
2018-Mar-06 22:58N 09°22' W 079°56'0 0.0
2018-Mar-06 22:28N 09°22' W 079°56'0 0.0
2018-Mar-06 21:58N 09°22' W 079°56'0 0.0
2018-Mar-06 21:28N 09°22' W 079°56'0 0.0
2018-Mar-06 20:58N 09°22' W 079°56'0 0.0
2018-Mar-06 20:28N 09°22' W 079°56'0 0.0
2018-Mar-06 19:58N 09°22' W 079°56'0 0.0
2018-Mar-06 19:28N 09°22' W 079°56'0 0.0
2018-Mar-06 18:58N 09°22' W 079°56'0 0.0
2018-Mar-06 18:28N 09°22' W 079°56'0 0.0
2018-Mar-06 17:58N 09°22' W 079°56'0 0.0
2018-Mar-06 17:28N 09°22' W 079°56'0 0.0
2018-Mar-06 16:58N 09°22' W 079°56'0 0.0
2018-Mar-06 16:28N 09°22' W 079°56'0 0.0
2018-Mar-06 15:58N 09°22' W 079°56'0 0.0
2018-Mar-06 15:28N 09°22' W 079°56'0 0.0
2018-Mar-06 14:58N 09°22' W 079°55'0 0.1
2018-Mar-06 14:28N 09°22' W 079°55'0 0.2
2018-Mar-06 13:58N 09°22' W 079°55'1 3.0
2018-Mar-06 13:30N 09°23' W 079°55'4 7.8
2018-Mar-06 12:59N 09°27' W 079°55'3 4.9
2018-Mar-06 12:28N 09°29' W 079°56'0 0.0
2018-Mar-06 11:58N 09°29' W 079°56'0 0.0
2018-Mar-06 11:25N 09°29' W 079°56'0 0.0
2018-Mar-06 10:58N 09°29' W 079°56'0 0.0
2018-Mar-06 10:28N 09°29' W 079°56'0 0.0
2018-Mar-06 09:58N 09°29' W 079°56'0 0.0
2018-Mar-06 09:28N 09°29' W 079°56'0 0.0
2018-Mar-06 08:58N 09°29' W 079°56'0 0.0
2018-Mar-06 08:04N 09°29' W 079°56'0 0.0
2018-Mar-06 07:55N 09°29' W 079°56'0 0.0
2018-Mar-06 07:22N 09°29' W 079°56'0 0.0
2018-Mar-06 06:52N 09°29' W 079°56'0 0.0
2018-Mar-06 06:28N 09°29' W 079°56'0 0.0
2018-Mar-06 05:58N 09°29' W 079°56'0 0.0
2018-Mar-06 05:25N 09°29' W 079°56'0 0.0
2018-Mar-06 04:49N 09°29' W 079°56'0 0.0
2018-Mar-06 04:25N 09°29' W 079°56'0 0.0
2018-Mar-06 03:58N 09°29' W 079°56'0 0.0
2018-Mar-06 03:28N 09°29' W 079°56'0 0.0
2018-Mar-05 22:10N 09°29' W 079°56'0 0.0
2018-Mar-05 21:46N 09°29' W 079°56'0 0.1
2018-Mar-05 21:25N 09°29' W 079°56'0 0.0
2018-Mar-05 19:13N 09°29' W 079°56'0 0.0
2018-Mar-05 18:49N 09°29' W 079°56'0 0.1
2018-Mar-05 18:25N 09°29' W 079°56'0 0.0
2018-Mar-05 17:43N 09°29' W 079°56'0 0.0
2018-Mar-05 17:22N 09°29' W 079°56'0 0.0
2018-Mar-05 16:55N 09°29' W 079°56'0 0.0
2018-Mar-05 16:22N 09°29' W 079°56'0 0.0
2018-Mar-05 15:43N 09°29' W 079°56'0 0.1
2018-Mar-05 14:43N 09°29' W 079°56'0 0.0
2018-Mar-05 12:34N 09°29' W 079°56'0 0.0
2018-Mar-05 12:28N 09°29' W 079°56'0 0.0
2018-Mar-05 11:55N 09°29' W 079°56'0 0.0
2018-Mar-05 10:43N 09°29' W 079°57'0 0.1
2018-Mar-05 08:13N 09°29' W 079°56'0 0.1
2018-Mar-05 07:58N 09°29' W 079°56'0 0.0
2018-Mar-05 07:04N 09°29' W 079°56'0 0.1
2018-Mar-05 06:58N 09°29' W 079°56'0 0.0
2018-Mar-05 06:28N 09°29' W 079°56'0 0.0
2018-Mar-05 05:52N 09°29' W 079°56'0 0.0
2018-Mar-05 05:22N 09°29' W 079°56'0 0.0
2018-Mar-05 03:13N 09°29' W 079°56'0 0.1
2018-Mar-05 02:49N 09°29' W 079°56'0 0.1
2018-Mar-05 01:53N 09°29' W 079°56'1 3.0
2018-Mar-05 01:29N 09°30' W 079°56'3 6.2
2018-Mar-05 01:00N 09°33' W 079°54'  
2018-Mar-01 07:42N 16°16' W 062°45'313.8
2018-Mar-01 07:30N 16°17' W 062°42'713.9
2018-Mar-01 07:00N 16°19' W 062°36'713.8
2018-Mar-01 06:29N 16°22' W 062°29'713.9
2018-Mar-01 05:58N 16°24' W 062°22'613.8
2018-Mar-01 05:30N 16°27' W 062°16'713.5
2018-Mar-01 05:01N 16°29' W 062°09'713.0
2018-Mar-01 04:30N 16°31' W 062°03'612.6
2018-Mar-01 04:00N 16°33' W 061°56'612.5
2018-Mar-01 03:29N 16°35' W 061°50'612.5
2018-Mar-01 03:00N 16°37' W 061°44'612.6
2018-Mar-01 02:30N 16°39' W 061°38'613.0
2018-Mar-01 02:01N 16°41' W 061°31'713.3
2018-Mar-01 01:31N 16°43' W 061°25'713.7
2018-Mar-01 01:00N 16°45' W 061°18'714.0
2018-Mar-01 00:31N 16°47' W 061°11'714.2
2018-Mar-01 00:01N 16°49' W 061°04'  
Track history (hours):
 
Tides and Currents Weather Stations Pressure Air Temp Water Temp Dewpoint Dewpoint Depression Visibility Wind Speed Wind Dir Waves Ship Positions

Spar Capella

Last reported at 2018-Mar-07 16:57 UTC. Time now 2018-May-21 05:14 UTC.
Position N 09°11' W 079°52'.
Warning: this ship's position is months out of date.

Length 190 m; draft 11.3 m.

Type: Cargo ship. MMSI: 259545000.

Date/timePositionNaut miles runAvg speedWind from/ knotsBaromVisibWave heightAir tempDewpointWater temp
2018-Mar-07 16:57N 09°11' W 079°52'4 8.2
2018-Mar-07 16:29N 09°12' W 079°55'1 2.7
2018-Mar-07 16:00N 09°14' W 079°56'0 0.0
2018-Mar-07 15:30N 09°14' W 079°56'0 0.0
2018-Mar-07 11:57N 09°14' W 079°56'0 0.0
2018-Mar-07 10:33N 09°14' W 079°56'0 0.0
2018-Mar-07 10:06N 09°14' W 079°56'0 0.1
2018-Mar-07 09:39N 09°14' W 079°56'0 0.1
2018-Mar-07 09:30N 09°14' W 079°56'0 0.0
2018-Mar-07 09:00N 09°14' W 079°56'0 0.0
2018-Mar-07 06:51N 09°14' W 079°56'0 0.0
2018-Mar-07 06:30N 09°14' W 079°56'0 0.0
2018-Mar-07 05:39N 09°14' W 079°56'0 0.0
2018-Mar-07 05:30N 09°14' W 079°56'0 0.0
2018-Mar-07 05:00N 09°14' W 079°56'0 0.1
2018-Mar-07 03:27N 09°14' W 079°56'1 2.1
2018-Mar-07 03:00N 09°15' W 079°55'2 3.3
2018-Mar-07 02:28N 09°16' W 079°55'0 0.4
2018-Mar-07 01:58N 09°16' W 079°55'0 0.4
2018-Mar-07 01:30N 09°17' W 079°55'0 0.5
2018-Mar-07 01:00N 09°17' W 079°55'1 1.2
2018-Mar-07 00:30N 09°17' W 079°55'3 5.1
2018-Mar-07 00:00N 09°20' W 079°55'2 3.4
2018-Mar-06 23:28N 09°22' W 079°56'0 0.1
2018-Mar-06 22:58N 09°22' W 079°56'0 0.0
2018-Mar-06 22:28N 09°22' W 079°56'0 0.0
2018-Mar-06 21:58N 09°22' W 079°56'0 0.0
2018-Mar-06 21:28N 09°22' W 079°56'0 0.0
2018-Mar-06 20:58N 09°22' W 079°56'0 0.0
2018-Mar-06 20:28N 09°22' W 079°56'0 0.0
2018-Mar-06 19:58N 09°22' W 079°56'0 0.0
2018-Mar-06 19:28N 09°22' W 079°56'0 0.0
2018-Mar-06 18:58N 09°22' W 079°56'0 0.0
2018-Mar-06 18:28N 09°22' W 079°56'0 0.0
2018-Mar-06 17:58N 09°22' W 079°56'0 0.0
2018-Mar-06 17:28N 09°22' W 079°56'0 0.0
2018-Mar-06 16:58N 09°22' W 079°56'0 0.0
2018-Mar-06 16:28N 09°22' W 079°56'0 0.0
2018-Mar-06 15:58N 09°22' W 079°56'0 0.0
2018-Mar-06 15:28N 09°22' W 079°56'0 0.0
2018-Mar-06 14:58N 09°22' W 079°55'0 0.1
2018-Mar-06 14:28N 09°22' W 079°55'0 0.2
2018-Mar-06 13:58N 09°22' W 079°55'1 3.0
2018-Mar-06 13:30N 09°23' W 079°55'4 7.8
2018-Mar-06 12:59N 09°27' W 079°55'3 4.9
2018-Mar-06 12:28N 09°29' W 079°56'0 0.0
2018-Mar-06 11:58N 09°29' W 079°56'0 0.0
2018-Mar-06 11:25N 09°29' W 079°56'0 0.0
2018-Mar-06 10:58N 09°29' W 079°56'0 0.0
2018-Mar-06 10:28N 09°29' W 079°56'0 0.0
2018-Mar-06 09:58N 09°29' W 079°56'0 0.0
2018-Mar-06 09:28N 09°29' W 079°56'0 0.0
2018-Mar-06 08:58N 09°29' W 079°56'0 0.0
2018-Mar-06 08:04N 09°29' W 079°56'0 0.0
2018-Mar-06 07:55N 09°29' W 079°56'0 0.0
2018-Mar-06 07:22N 09°29' W 079°56'0 0.0
2018-Mar-06 06:52N 09°29' W 079°56'0 0.0
2018-Mar-06 06:28N 09°29' W 079°56'0 0.0
2018-Mar-06 05:58N 09°29' W 079°56'0 0.0
2018-Mar-06 05:25N 09°29' W 079°56'0 0.0
2018-Mar-06 04:49N 09°29' W 079°56'0 0.0
2018-Mar-06 04:25N 09°29' W 079°56'0 0.0
2018-Mar-06 03:58N 09°29' W 079°56'0 0.0
2018-Mar-06 03:28N 09°29' W 079°56'0 0.0
2018-Mar-05 22:10N 09°29' W 079°56'0 0.0
2018-Mar-05 21:46N 09°29' W 079°56'0 0.1
2018-Mar-05 21:25N 09°29' W 079°56'0 0.0
2018-Mar-05 19:13N 09°29' W 079°56'0 0.0
2018-Mar-05 18:49N 09°29' W 079°56'0 0.1
2018-Mar-05 18:25N 09°29' W 079°56'0 0.0
2018-Mar-05 17:43N 09°29' W 079°56'0 0.0
2018-Mar-05 17:22N 09°29' W 079°56'0 0.0
2018-Mar-05 16:55N 09°29' W 079°56'0 0.0
2018-Mar-05 16:22N 09°29' W 079°56'0 0.0
2018-Mar-05 15:43N 09°29' W 079°56'0 0.1
2018-Mar-05 14:43N 09°29' W 079°56'0 0.0
2018-Mar-05 12:34N 09°29' W 079°56'0 0.0
2018-Mar-05 12:28N 09°29' W 079°56'0 0.0
2018-Mar-05 11:55N 09°29' W 079°56'0 0.0
2018-Mar-05 10:43N 09°29' W 079°57'0 0.1
2018-Mar-05 08:13N 09°29' W 079°56'0 0.1
2018-Mar-05 07:58N 09°29' W 079°56'0 0.0
2018-Mar-05 07:04N 09°29' W 079°56'0 0.1
2018-Mar-05 06:58N 09°29' W 079°56'0 0.0
2018-Mar-05 06:28N 09°29' W 079°56'0 0.0
2018-Mar-05 05:52N 09°29' W 079°56'0 0.0
2018-Mar-05 05:22N 09°29' W 079°56'0 0.0
2018-Mar-05 03:13N 09°29' W 079°56'0 0.1
2018-Mar-05 02:49N 09°29' W 079°56'0 0.1
2018-Mar-05 01:53N 09°29' W 079°56'1 3.0
2018-Mar-05 01:29N 09°30' W 079°56'3 6.2
2018-Mar-05 01:00N 09°33' W 079°54'  
2018-Mar-01 07:42N 16°16' W 062°45'313.8
2018-Mar-01 07:30N 16°17' W 062°42'713.9
2018-Mar-01 07:00N 16°19' W 062°36'713.8
2018-Mar-01 06:29N 16°22' W 062°29'713.9
2018-Mar-01 05:58N 16°24' W 062°22'613.8
2018-Mar-01 05:30N 16°27' W 062°16'713.5
2018-Mar-01 05:01N 16°29' W 062°09'713.0
2018-Mar-01 04:30N 16°31' W 062°03'612.6
2018-Mar-01 04:00N 16°33' W 061°56'612.5
2018-Mar-01 03:29N 16°35' W 061°50'612.5
2018-Mar-01 03:00N 16°37' W 061°44'612.6
2018-Mar-01 02:30N 16°39' W 061°38'613.0
2018-Mar-01 02:01N 16°41' W 061°31'713.3
2018-Mar-01 01:31N 16°43' W 061°25'713.7
2018-Mar-01 01:00N 16°45' W 061°18'714.0
2018-Mar-01 00:31N 16°47' W 061°11'714.2
2018-Mar-01 00:01N 16°49' W 061°04'  

Dump ship's entire track history